createdAt,value
2022-11-06T00:01:59.761Z,69.60
2022-11-06T00:04:29.675Z,69.50
2022-11-06T00:06:56.324Z,69.60
2022-11-06T00:09:22.979Z,69.50
2022-11-06T00:11:50.498Z,69.70
2022-11-06T00:14:17.962Z,69.70
2022-11-06T00:16:46.233Z,69.90
2022-11-06T00:19:12.924Z,69.80
2022-11-06T00:21:40.338Z,69.80
2022-11-06T00:24:07.926Z,69.90
2022-11-06T00:26:35.183Z,69.80
2022-11-06T00:29:03.132Z,69.80
2022-11-06T00:31:35.781Z,69.80
2022-11-06T00:34:03.715Z,69.20
2022-11-06T00:36:31.192Z,69.80
2022-11-06T00:38:59.150Z,69.70
2022-11-06T00:41:26.430Z,69.70
2022-11-06T00:43:59.171Z,69.70
2022-11-06T00:46:26.917Z,69.70
2022-11-06T00:48:54.311Z,69.60
2022-11-06T00:51:30.771Z,69.60
2022-11-06T00:54:00.240Z,69.60
2022-11-06T00:56:27.394Z,69.60
2022-11-06T00:58:54.747Z,69.50
2022-11-06T01:01:43.056Z,69.50
2022-11-06T01:04:18.135Z,68.90
2022-11-06T01:06:47.927Z,69.40
2022-11-06T01:09:18.780Z,69.40
2022-11-06T01:14:39.797Z,68.80
2022-11-06T01:17:06.419Z,69.20
2022-11-06T01:19:33.053Z,69.20
2022-11-06T01:21:59.622Z,69.20
2022-11-06T01:24:28.403Z,69.10
2022-11-06T01:29:41.989Z,69.20
2022-11-06T01:32:08.947Z,69.10
2022-11-06T01:34:35.668Z,69.10
2022-11-06T01:37:02.655Z,69.00
2022-11-06T01:39:29.288Z,69.00
2022-11-06T01:41:55.941Z,68.90
2022-11-06T01:44:40.800Z,68.90
2022-11-06T01:47:21.435Z,68.90
2022-11-06T01:49:49.533Z,68.90
2022-11-06T01:52:16.923Z,68.80
2022-11-06T01:54:46.721Z,68.80
2022-11-06T01:57:13.384Z,68.80
2022-11-06T01:59:44.559Z,68.80
2022-11-06T02:02:11.954Z,68.70
2022-11-06T02:04:44.897Z,68.70
2022-11-06T02:07:12.286Z,68.80
2022-11-06T02:09:39.081Z,68.70
2022-11-06T02:12:37.518Z,68.60
2022-11-06T02:15:21.058Z,68.60
2022-11-06T02:17:58.072Z,68.50
2022-11-06T02:20:54.457Z,68.50
2022-11-06T02:23:36.220Z,68.30
2022-11-06T02:26:17.711Z,68.40
2022-11-06T02:29:07.881Z,68.30
2022-11-06T02:31:37.324Z,68.40
2022-11-06T02:34:09.897Z,68.20
2022-11-06T02:36:42.177Z,68.20
2022-11-06T02:39:14.912Z,68.20
2022-11-06T02:41:46.002Z,68.20
2022-11-06T02:44:19.452Z,68.10
2022-11-06T02:47:04.904Z,68.10
2022-11-06T02:49:58.102Z,68.20
2022-11-06T02:52:38.731Z,68.20
2022-11-06T02:55:20.041Z,68.20
2022-11-06T02:57:52.648Z,68.10
2022-11-06T03:00:19.332Z,68.10
2022-11-06T03:03:07.077Z,68.30
2022-11-06T03:05:38.456Z,68.00
2022-11-06T03:08:17.801Z,67.90
2022-11-06T03:10:57.721Z,67.90
2022-11-06T03:13:44.224Z,67.90
2022-11-06T03:16:27.047Z,67.80
2022-11-06T03:19:05.968Z,67.80
2022-11-06T03:21:44.120Z,67.70
2022-11-06T03:24:19.776Z,67.70
2022-11-06T03:26:50.630Z,67.70
2022-11-06T03:29:23.852Z,67.70
2022-11-06T03:32:05.394Z,67.70
2022-11-06T03:34:40.659Z,67.70
2022-11-06T03:37:16.545Z,67.70
2022-11-06T03:39:49.924Z,67.60
2022-11-06T03:42:22.907Z,67.60
2022-11-06T03:44:57.928Z,67.60
2022-11-06T03:47:33.348Z,67.60
2022-11-06T03:50:07.393Z,67.50
2022-11-06T03:52:43.144Z,67.50
2022-11-06T03:55:22.813Z,66.60
2022-11-06T03:58:13.497Z,67.40
2022-11-06T04:00:42.519Z,67.30
2022-11-06T04:03:19.103Z,67.30
2022-11-06T04:05:59.839Z,67.30
2022-11-06T04:08:46.614Z,67.20
2022-11-06T04:11:36.636Z,67.30
2022-11-06T04:14:05.812Z,67.20
2022-11-06T04:16:39.467Z,67.10
2022-11-06T04:19:18.290Z,67.10
2022-11-06T04:22:14.793Z,67.10
2022-11-06T04:25:36.732Z,67.00
2022-11-06T04:28:08.655Z,67.00
2022-11-06T04:31:02.901Z,66.90
2022-11-06T04:34:02.969Z,66.90
2022-11-06T04:36:37.539Z,66.90
2022-11-06T04:39:13.504Z,66.90
2022-11-06T04:42:22.803Z,66.90
2022-11-06T04:44:52.836Z,66.90
2022-11-06T04:47:22.121Z,66.80
2022-11-06T04:49:52.562Z,66.80
2022-11-06T04:52:23.798Z,66.80
2022-11-06T04:54:50.954Z,66.80
2022-11-06T04:57:17.589Z,66.60
2022-11-06T04:59:44.420Z,66.60
2022-11-06T05:02:11.529Z,66.60
2022-11-06T05:04:38.226Z,66.60
2022-11-06T05:07:04.824Z,66.60
2022-11-06T05:09:31.652Z,66.50
2022-11-06T05:11:58.529Z,66.60
2022-11-06T05:14:27.408Z,66.50
2022-11-06T05:16:54.039Z,65.70
2022-11-06T05:19:20.682Z,66.40
2022-11-06T05:22:05.877Z,66.30
2022-11-06T05:24:32.451Z,66.30
2022-11-06T05:26:59.741Z,66.30
2022-11-06T05:29:26.826Z,66.30
2022-11-06T05:31:53.624Z,66.30
2022-11-06T05:34:20.387Z,65.70
2022-11-06T05:36:47.077Z,66.30
2022-11-06T05:39:13.657Z,66.20
2022-11-06T05:41:40.263Z,66.10
2022-11-06T05:44:06.982Z,66.20
2022-11-06T05:46:50.047Z,66.20
2022-11-06T05:49:18.422Z,66.20
2022-11-06T05:51:45.367Z,66.20
2022-11-06T05:54:11.972Z,66.20
2022-11-06T05:56:38.579Z,66.10
2022-11-06T05:59:05.384Z,66.10
2022-11-06T06:01:32.040Z,66.00
2022-11-06T06:03:58.742Z,65.40
2022-11-06T06:06:25.630Z,66.00
2022-11-06T06:08:52.231Z,66.10
2022-11-06T06:11:18.925Z,66.00
2022-11-06T06:13:45.587Z,66.10
2022-11-06T06:16:12.283Z,65.90
2022-11-06T06:18:38.859Z,65.90
2022-11-06T06:21:05.639Z,66.10
2022-11-06T06:23:32.260Z,65.80
2022-11-06T06:25:58.863Z,66.00
2022-11-06T06:28:25.505Z,66.00
2022-11-06T06:30:55.858Z,65.90
2022-11-06T06:33:25.334Z,65.90
2022-11-06T06:35:51.897Z,65.70
2022-11-06T06:38:18.464Z,65.80
2022-11-06T06:40:45.067Z,65.70
2022-11-06T06:43:11.655Z,65.80
2022-11-06T06:45:38.234Z,65.80
2022-11-06T06:48:06.092Z,65.80
2022-11-06T06:50:32.926Z,65.90
2022-11-06T06:52:59.797Z,65.90
2022-11-06T06:55:26.561Z,65.80
2022-11-06T06:58:00.749Z,65.90
2022-11-06T07:00:29.030Z,66.00
2022-11-06T07:02:55.668Z,66.00
2022-11-06T07:05:22.546Z,66.00
2022-11-06T07:07:49.234Z,66.00
2022-11-06T07:10:16.245Z,66.00
2022-11-06T07:12:42.916Z,66.00
2022-11-06T07:15:09.985Z,65.90
2022-11-06T07:17:36.616Z,65.90
2022-11-06T07:20:03.845Z,66.00
2022-11-06T07:22:36.658Z,66.00
2022-11-06T07:25:05.471Z,66.10
2022-11-06T07:27:32.104Z,66.00
2022-11-06T07:30:00.360Z,66.00
2022-11-06T07:32:27.072Z,66.00
2022-11-06T07:34:53.725Z,66.00
2022-11-06T07:37:20.332Z,66.00
2022-11-06T07:39:46.948Z,66.00
2022-11-06T07:42:13.634Z,66.00
2022-11-06T07:44:42.512Z,66.00
2022-11-06T07:47:09.074Z,66.00
2022-11-06T07:49:35.641Z,66.00
2022-11-06T07:52:02.376Z,66.00
2022-11-06T07:54:28.960Z,66.00
2022-11-06T07:56:55.571Z,66.00
2022-11-06T07:59:22.222Z,65.90
2022-11-06T08:01:48.962Z,65.90
2022-11-06T08:04:15.660Z,65.90
2022-11-06T08:06:42.217Z,65.90
2022-11-06T08:09:09.981Z,65.90
2022-11-06T08:11:37.020Z,65.80
2022-11-06T08:14:03.780Z,65.90
2022-11-06T08:16:31.117Z,65.80
2022-11-06T08:18:57.817Z,65.90
2022-11-06T08:21:24.404Z,66.00
2022-11-06T08:26:18.312Z,65.50
2022-11-06T08:28:44.973Z,66.40
2022-11-06T08:31:11.674Z,66.40
2022-11-06T08:33:39.136Z,66.50
2022-11-06T08:36:07.527Z,66.60
2022-11-06T08:38:34.483Z,66.60
2022-11-06T08:41:08.971Z,66.60
2022-11-06T08:43:36.181Z,66.60
2022-11-06T08:46:03.684Z,66.60
2022-11-06T08:48:31.559Z,66.60
2022-11-06T08:50:58.209Z,66.90
2022-11-06T08:53:25.372Z,66.90
2022-11-06T08:55:52.200Z,66.30
2022-11-06T08:58:18.805Z,67.00
2022-11-06T09:00:45.551Z,66.90
2022-11-06T09:03:15.416Z,67.30
2022-11-06T09:05:44.004Z,67.40
2022-11-06T09:08:11.393Z,67.40
2022-11-06T09:10:39.550Z,67.20
2022-11-06T09:13:06.379Z,67.70
2022-11-06T09:15:33.849Z,67.00
2022-11-06T09:18:00.550Z,67.40
2022-11-06T09:20:27.727Z,67.40
2022-11-06T09:22:55.035Z,67.20
2022-11-06T09:25:21.841Z,67.20
2022-11-06T09:27:57.388Z,67.30
2022-11-06T09:30:27.409Z,67.30
2022-11-06T09:32:57.153Z,67.20
2022-11-06T09:35:25.530Z,67.30
2022-11-06T09:37:52.187Z,67.20
2022-11-06T09:40:31.338Z,67.40
2022-11-06T09:43:23.618Z,67.80
2022-11-06T09:46:17.382Z,67.90
2022-11-06T09:48:47.597Z,68.10
2022-11-06T09:51:24.070Z,68.30
2022-11-06T09:54:06.328Z,68.40
2022-11-06T09:56:36.383Z,68.30
2022-11-06T09:59:06.470Z,68.30
2022-11-06T10:01:45.505Z,68.40
2022-11-06T10:04:35.708Z,68.40
2022-11-06T10:07:02.312Z,68.40
2022-11-06T10:09:29.836Z,68.50
2022-11-06T10:12:06.754Z,68.50
2022-11-06T10:14:56.771Z,68.50
2022-11-06T10:17:29.241Z,68.30
2022-11-06T10:20:00.293Z,68.00
2022-11-06T10:22:35.679Z,68.00
2022-11-06T10:25:19.732Z,67.10
2022-11-06T10:27:53.482Z,67.50
2022-11-06T10:30:20.449Z,67.30
2022-11-06T10:33:10.953Z,67.30
2022-11-06T10:35:43.766Z,66.80
2022-11-06T10:38:15.121Z,67.10
2022-11-06T10:40:45.187Z,67.00
2022-11-06T10:43:23.472Z,67.20
2022-11-06T10:45:58.884Z,67.30
2022-11-06T10:48:41.448Z,67.10
2022-11-06T10:51:20.218Z,67.20
2022-11-06T10:54:11.528Z,67.40
2022-11-06T10:57:02.488Z,67.20
2022-11-06T10:59:29.248Z,67.00
2022-11-06T11:01:56.082Z,67.00
2022-11-06T11:04:22.753Z,67.00
2022-11-06T11:06:49.331Z,66.90
2022-11-06T11:09:36.175Z,66.70
2022-11-06T11:12:02.930Z,66.90
2022-11-06T11:14:31.780Z,66.90
2022-11-06T11:17:01.187Z,66.80
2022-11-06T11:19:41.044Z,66.80
2022-11-06T11:22:16.637Z,66.80
2022-11-06T11:25:24.830Z,64.90
2022-11-06T11:27:51.465Z,66.50
2022-11-06T11:30:32.173Z,66.80
2022-11-06T11:32:59.333Z,66.50
2022-11-06T11:35:31.083Z,66.80
2022-11-06T11:38:13.398Z,66.90
2022-11-06T11:40:40.776Z,67.10
2022-11-06T11:43:27.632Z,67.10
2022-11-06T11:46:09.283Z,67.10
2022-11-06T11:48:56.632Z,67.10
2022-11-06T11:51:31.118Z,67.10
2022-11-06T11:54:05.339Z,67.00
2022-11-06T11:57:02.397Z,66.30
2022-11-06T11:59:22.124Z,66.90
2022-11-06T12:01:49.903Z,67.00
2022-11-06T12:04:31.039Z,66.80
2022-11-06T12:07:07.174Z,66.60
2022-11-06T12:09:41.792Z,66.60
2022-11-06T12:12:23.854Z,66.80
2022-11-06T12:15:18.106Z,66.30
2022-11-06T12:17:54.901Z,66.90
2022-11-06T12:20:27.605Z,67.40
2022-11-06T12:22:56.688Z,67.70
2022-11-06T12:25:31.989Z,68.10
2022-11-06T12:28:01.477Z,68.40
2022-11-06T12:30:29.795Z,68.40
2022-11-06T12:32:59.681Z,68.40
2022-11-06T12:35:38.338Z,68.40
2022-11-06T12:38:14.163Z,68.70
2022-11-06T12:40:47.087Z,68.60
2022-11-06T12:43:31.414Z,68.30
2022-11-06T12:46:12.944Z,67.80
2022-11-06T12:48:52.853Z,68.20
2022-11-06T12:51:44.605Z,68.30
2022-11-06T12:54:14.295Z,69.90
2022-11-06T12:56:57.999Z,69.50
2022-11-06T12:59:27.338Z,69.90
2022-11-06T13:02:11.942Z,70.30
2022-11-06T13:05:03.373Z,69.00
2022-11-06T13:07:59.153Z,69.20
2022-11-06T13:10:44.524Z,68.50
2022-11-06T13:13:22.953Z,66.00
2022-11-06T13:16:33.653Z,66.00
2022-11-06T13:19:25.687Z,67.40
2022-11-06T13:21:52.251Z,67.40
2022-11-06T13:24:28.504Z,67.40
2022-11-06T13:27:04.184Z,67.20
2022-11-06T13:29:30.923Z,67.20
2022-11-06T13:32:01.950Z,67.30
2022-11-06T13:34:35.323Z,67.00
2022-11-06T13:37:03.048Z,67.80
2022-11-06T13:39:46.208Z,68.70
2022-11-06T13:42:37.650Z,68.30
2022-11-06T13:45:07.656Z,68.00
2022-11-06T13:48:00.700Z,68.60
2022-11-06T13:50:30.696Z,68.90
2022-11-06T13:53:05.495Z,68.70
2022-11-06T13:56:11.554Z,69.00
2022-11-06T13:59:15.820Z,69.00
2022-11-06T14:02:08.934Z,69.10
2022-11-06T14:05:07.768Z,69.20
2022-11-06T14:07:36.387Z,69.30
2022-11-06T14:10:04.489Z,69.20
2022-11-06T14:12:31.124Z,69.40
2022-11-06T14:15:22.981Z,69.30
2022-11-06T14:17:58.213Z,69.40
2022-11-06T14:20:31.724Z,69.50
2022-11-06T14:23:29.014Z,69.50
2022-11-06T14:26:01.943Z,69.10
2022-11-06T14:28:34.616Z,69.80
2022-11-06T14:31:21.818Z,69.70
2022-11-06T14:33:51.758Z,69.50
2022-11-06T14:36:24.008Z,69.30
2022-11-06T14:38:51.966Z,69.30
2022-11-06T14:41:38.243Z,69.30
2022-11-06T14:44:15.156Z,69.20
2022-11-06T14:46:50.277Z,69.20
2022-11-06T14:49:26.769Z,69.10
2022-11-06T14:52:06.038Z,69.20
2022-11-06T14:54:37.480Z,69.10
2022-11-06T14:57:04.519Z,69.00
2022-11-06T14:59:36.976Z,69.10
2022-11-06T15:02:17.026Z,69.00
2022-11-06T15:04:53.143Z,69.00
2022-11-06T15:08:08.350Z,69.00
2022-11-06T15:10:44.283Z,69.00
2022-11-06T15:13:18.156Z,69.00
2022-11-06T15:16:09.661Z,68.80
2022-11-06T15:18:37.474Z,68.90
2022-11-06T15:21:09.127Z,68.80
2022-11-06T15:24:04.070Z,68.90
2022-11-06T15:26:38.509Z,68.90
2022-11-06T15:29:23.956Z,68.90
2022-11-06T15:31:54.420Z,68.90
2022-11-06T15:34:39.437Z,69.00
2022-11-06T15:37:19.543Z,68.90
2022-11-06T15:39:57.728Z,68.90
2022-11-06T15:42:35.196Z,68.90
2022-11-06T15:45:22.922Z,69.50
2022-11-06T15:48:05.402Z,68.80
2022-11-06T15:50:37.048Z,68.80
2022-11-06T15:53:20.794Z,68.90
2022-11-06T15:55:56.411Z,68.90
2022-11-06T15:58:31.845Z,69.10
2022-11-06T16:01:00.700Z,68.80
2022-11-06T16:03:30.475Z,68.70
2022-11-06T16:06:00.644Z,68.80
2022-11-06T16:08:29.669Z,69.20
2022-11-06T16:10:58.201Z,69.50
2022-11-06T16:13:25.940Z,69.30
2022-11-06T16:15:55.587Z,69.50
2022-11-06T16:18:31.307Z,69.40
2022-11-06T16:21:01.799Z,69.40
2022-11-06T16:23:38.777Z,69.50
2022-11-06T16:26:14.287Z,69.50
2022-11-06T16:28:46.532Z,69.40
2022-11-06T16:31:19.482Z,69.50
2022-11-06T16:34:02.662Z,69.00
2022-11-06T16:36:31.476Z,69.00
2022-11-06T16:39:16.889Z,69.60
2022-11-06T16:42:00.619Z,69.50
2022-11-06T16:44:43.153Z,69.60
2022-11-06T16:47:21.455Z,69.60
2022-11-06T16:49:54.288Z,69.70
2022-11-06T16:52:38.855Z,69.60
2022-11-06T16:55:06.767Z,69.10
2022-11-06T16:57:50.549Z,69.70
2022-11-06T17:00:27.414Z,69.70
2022-11-06T17:03:16.544Z,69.60
2022-11-06T17:05:51.928Z,69.60
2022-11-06T17:08:18.528Z,69.50
2022-11-06T17:10:52.593Z,69.40
2022-11-06T17:13:22.273Z,69.60
2022-11-06T17:15:55.872Z,68.80
2022-11-06T17:18:27.379Z,69.40
2022-11-06T17:20:56.713Z,69.50
2022-11-06T17:23:24.900Z,69.40
2022-11-06T17:25:53.896Z,69.50
2022-11-06T17:28:20.556Z,69.40
2022-11-06T17:30:47.667Z,69.30
2022-11-06T17:33:15.534Z,69.40
2022-11-06T17:35:42.925Z,69.40
2022-11-06T17:38:14.206Z,69.40
2022-11-06T17:40:44.770Z,69.30
2022-11-06T17:43:12.236Z,69.20
2022-11-06T17:45:41.588Z,68.50
2022-11-06T17:48:08.455Z,69.10
2022-11-06T17:50:55.019Z,69.10
2022-11-06T17:53:21.670Z,69.10
2022-11-06T17:55:48.390Z,68.90
2022-11-06T17:58:15.529Z,68.90
2022-11-06T18:00:42.893Z,68.80
2022-11-06T18:03:17.821Z,68.80
2022-11-06T18:05:44.859Z,68.80
2022-11-06T18:08:13.582Z,68.70
2022-11-06T18:10:40.519Z,68.80
2022-11-06T18:13:07.408Z,68.80
2022-11-06T18:15:35.373Z,68.70
2022-11-06T18:18:02.272Z,68.70
2022-11-06T18:20:28.899Z,68.70
2022-11-06T18:22:55.480Z,68.70
2022-11-06T18:25:22.098Z,68.70
2022-11-06T18:27:48.729Z,68.70
2022-11-06T18:30:15.459Z,68.90
2022-11-06T18:32:42.114Z,68.90
2022-11-06T18:35:09.175Z,69.00
2022-11-06T18:37:35.786Z,68.90
2022-11-06T18:40:02.908Z,69.00
2022-11-06T18:42:29.505Z,69.10
2022-11-06T18:44:56.115Z,69.00
2022-11-06T18:47:22.696Z,69.10
2022-11-06T18:49:49.340Z,68.90
2022-11-06T18:52:32.432Z,68.90
2022-11-06T18:55:02.751Z,68.90
2022-11-06T18:57:29.904Z,68.60
2022-11-06T18:59:56.560Z,68.80
2022-11-06T19:02:23.383Z,68.80
2022-11-06T19:04:50.172Z,68.20
2022-11-06T19:07:16.883Z,68.90
2022-11-06T19:09:43.487Z,68.80
2022-11-06T19:12:10.066Z,68.70
2022-11-06T19:14:36.856Z,68.10
2022-11-06T19:17:03.671Z,68.70
2022-11-06T19:19:30.278Z,68.50
2022-11-06T19:21:56.901Z,68.50
2022-11-06T19:24:23.495Z,68.40
2022-11-06T19:26:50.249Z,68.40
2022-11-06T19:29:17.119Z,68.40
2022-11-06T19:31:43.742Z,68.40
2022-11-06T19:34:13.248Z,68.40
2022-11-06T19:36:39.836Z,67.70
2022-11-06T19:39:07.177Z,68.40
2022-11-06T19:41:34.169Z,68.40
2022-11-06T19:44:00.775Z,68.50
2022-11-06T19:46:33.982Z,68.30
2022-11-06T19:49:04.000Z,68.30
2022-11-06T19:51:30.718Z,68.20
2022-11-06T19:53:57.498Z,68.30
2022-11-06T19:56:24.148Z,67.70
2022-11-06T19:58:51.736Z,68.30
2022-11-06T20:01:19.958Z,68.20
2022-11-06T20:03:47.054Z,68.20
2022-11-06T20:06:15.152Z,68.20
2022-11-06T20:08:42.026Z,68.20
2022-11-06T20:11:14.001Z,68.10
2022-11-06T20:13:42.201Z,68.00
2022-11-06T20:16:11.790Z,67.90
2022-11-06T20:18:38.615Z,68.10
2022-11-06T20:21:12.076Z,68.10
2022-11-06T20:23:39.009Z,68.20
2022-11-06T20:26:06.368Z,68.10
2022-11-06T20:28:33.873Z,68.10
2022-11-06T20:31:05.101Z,68.10
2022-11-06T20:33:31.834Z,68.10
2022-11-06T20:35:58.490Z,68.10
2022-11-06T20:38:25.699Z,68.20
2022-11-06T20:40:55.678Z,68.20
2022-11-06T20:43:22.337Z,68.20
2022-11-06T20:45:48.989Z,68.20
2022-11-06T20:48:16.033Z,68.20
2022-11-06T20:50:42.679Z,68.20
2022-11-06T20:53:09.509Z,68.10
2022-11-06T20:55:36.071Z,68.10
2022-11-06T20:58:02.811Z,68.10
2022-11-06T21:00:29.568Z,68.20
2022-11-06T21:03:01.327Z,68.20
2022-11-06T21:05:28.512Z,68.10
2022-11-06T21:07:55.088Z,68.00
2022-11-06T21:10:21.710Z,68.40
2022-11-06T21:12:48.290Z,68.10
2022-11-06T21:15:15.046Z,67.80
2022-11-06T21:17:42.518Z,67.70
2022-11-06T21:20:10.801Z,67.70
2022-11-06T21:22:37.444Z,67.80
2022-11-06T21:25:04.300Z,67.90
2022-11-06T21:27:30.986Z,68.00
2022-11-06T21:29:58.166Z,67.90
2022-11-06T21:32:25.118Z,68.10
2022-11-06T21:34:51.732Z,67.70
2022-11-06T21:37:18.373Z,68.00
2022-11-06T21:39:44.991Z,68.00
2022-11-06T21:42:11.581Z,68.00
2022-11-06T21:44:38.173Z,67.40
2022-11-06T21:47:04.871Z,68.10
2022-11-06T21:49:31.587Z,67.90
2022-11-06T21:52:18.207Z,67.90
2022-11-06T21:55:16.899Z,67.90
2022-11-06T21:57:43.539Z,67.90
2022-11-06T22:00:14.269Z,67.90
2022-11-06T22:02:41.386Z,67.80
2022-11-06T22:05:08.557Z,67.80
2022-11-06T22:07:35.666Z,67.80
2022-11-06T22:10:02.415Z,67.80
2022-11-06T22:12:29.411Z,67.80
2022-11-06T22:14:56.008Z,68.50
2022-11-06T22:17:22.697Z,67.70
2022-11-06T22:19:49.346Z,67.70
2022-11-06T22:22:15.924Z,67.70
2022-11-06T22:24:42.609Z,67.70
2022-11-06T22:27:09.192Z,67.70
2022-11-06T22:29:35.769Z,67.70
2022-11-06T22:32:02.345Z,67.70
2022-11-06T22:34:28.928Z,67.60
2022-11-06T22:36:55.557Z,67.20
2022-11-06T22:39:22.156Z,67.70
2022-11-06T22:41:48.789Z,67.70
2022-11-06T22:44:15.402Z,67.50
2022-11-06T22:46:42.042Z,67.60
2022-11-06T22:49:08.925Z,67.60
2022-11-06T22:51:35.994Z,67.40
2022-11-06T22:54:02.997Z,66.80
2022-11-06T22:56:31.045Z,67.60
2022-11-06T22:59:02.034Z,67.50
2022-11-06T23:01:30.618Z,67.50
2022-11-06T23:04:01.168Z,67.50
2022-11-06T23:06:28.324Z,67.40
2022-11-06T23:08:55.026Z,67.40
2022-11-06T23:11:24.032Z,67.50
2022-11-06T23:13:50.842Z,67.50
2022-11-06T23:16:43.599Z,67.40
2022-11-06T23:19:13.135Z,67.50
2022-11-06T23:21:40.148Z,68.10
2022-11-06T23:24:07.435Z,67.40
2022-11-06T23:26:34.758Z,67.40
2022-11-06T23:29:01.991Z,67.50
2022-11-06T23:31:28.854Z,67.50
2022-11-06T23:33:56.238Z,67.50
2022-11-06T23:36:22.911Z,67.40
2022-11-06T23:38:53.076Z,67.40
2022-11-06T23:41:38.269Z,67.40
2022-11-06T23:44:05.153Z,67.40
2022-11-06T23:46:33.531Z,67.40
2022-11-06T23:49:00.177Z,67.30
2022-11-06T23:51:27.436Z,67.40
2022-11-06T23:53:54.928Z,67.40
2022-11-06T23:56:21.743Z,67.40
2022-11-06T23:58:48.341Z,67.30
